Time;durP1;ratioP1;P1;durP2;ratioP2;P2;SDS_P1;SDS_P2;PMS_P1;PMS_P2;Temp;Humidity;BMP_temperature;BMP_pressure;BME280_temperature;BME280_humidity;BME280_pressure;Samples;Min_cycle;Max_cycle;Signal;HPM_P1;HPM_P2
2022/12/12 00:00:21;;;;;;;25.53;14.63;;;-1.10;99.90;;;;;;5053237;28;20192;-46
2022/12/12 00:02:47;;;;;;;26.47;14.30;;;-1.10;99.90;;;;;;5053174;28;20215;-47
2022/12/12 00:05:16;;;;;;;28.10;14.93;;;-1.10;99.90;;;;;;5053462;28;20462;-45
2022/12/12 00:07:42;;;;;;;27.70;14.60;;;-1.20;99.90;;;;;;5053076;28;20260;-49
2022/12/12 00:10:08;;;;;;;27.40;14.83;;;-1.20;99.90;;;;;;5053133;28;20511;-47
2022/12/12 00:12:33;;;;;;;25.57;13.80;;;-1.20;99.90;;;;;;5053179;28;20545;-46
2022/12/12 00:14:59;;;;;;;27.10;15.70;;;-1.20;99.90;;;;;;5053219;28;20176;-45
2022/12/12 00:17:25;;;;;;;24.57;14.77;;;-1.20;99.90;;;;;;5053170;28;20176;-46
2022/12/12 00:19:50;;;;;;;28.93;14.23;;;-1.20;99.90;;;;;;5053013;28;20215;-46
2022/12/12 00:22:16;;;;;;;27.00;14.03;;;-1.20;99.90;;;;;;5053374;28;20183;-48
2022/12/12 00:24:42;;;;;;;28.33;15.53;;;-1.20;99.90;;;;;;5053145;28;20185;-46
2022/12/12 00:27:08;;;;;;;24.83;14.13;;;-1.30;99.90;;;;;;5053069;28;20181;-46
2022/12/12 00:29:34;;;;;;;26.80;14.90;;;-1.30;99.90;;;;;;5053097;28;20612;-45
2022/12/12 00:31:59;;;;;;;26.30;15.20;;;-1.30;99.90;;;;;;5053419;28;20485;-47
2022/12/12 00:34:25;;;;;;;27.37;15.07;;;-1.30;99.90;;;;;;5053153;28;20890;-47
2022/12/12 00:36:50;;;;;;;28.20;15.43;;;-1.30;99.90;;;;;;5053166;28;20204;-48
2022/12/12 00:39:19;;;;;;;29.23;15.87;;;-1.30;99.90;;;;;;5053032;28;20245;-46
2022/12/12 00:41:45;;;;;;;27.97;15.30;;;-1.30;99.90;;;;;;5053161;28;20178;-46
2022/12/12 00:44:11;;;;;;;30.57;15.00;;;-1.40;99.90;;;;;;5052860;28;20775;-45
2022/12/12 00:46:37;;;;;;;30.87;15.60;;;-1.40;99.90;;;;;;5052939;28;20182;-45
2022/12/12 00:49:03;;;;;;;27.33;14.23;;;-1.40;99.90;;;;;;5052692;28;20212;-46
2022/12/12 00:51:29;;;;;;;28.90;16.33;;;-1.40;99.90;;;;;;5052948;28;20701;-44
2022/12/12 00:53:57;;;;;;;29.33;15.70;;;-1.50;99.90;;;;;;5034876;28;20517;-45
2022/12/12 00:56:23;;;;;;;26.80;15.10;;;-1.40;99.90;;;;;;5034855;28;20416;-46
2022/12/12 00:58:50;;;;;;;29.03;15.60;;;-1.50;99.90;;;;;;5052835;28;20427;-45
2022/12/12 01:01:31;;;;;;;31.97;16.20;;;-1.50;99.90;;;;;;5052532;28;20903;-47
2022/12/12 01:03:58;;;;;;;28.00;15.03;;;-1.50;99.90;;;;;;5053329;28;20411;-46
2022/12/12 01:06:24;;;;;;;31.70;14.93;;;-1.50;99.90;;;;;;5056514;28;20411;-44
2022/12/12 01:08:49;;;;;;;30.97;15.47;;;-1.50;99.90;;;;;;5056501;28;20528;-45
2022/12/12 01:11:16;;;;;;;25.00;13.97;;;-1.60;99.90;;;;;;5056917;28;20196;-44
2022/12/12 01:13:42;;;;;;;23.20;14.80;;;-1.60;99.90;;;;;;5056738;28;20251;-45
2022/12/12 01:16:09;;;;;;;27.07;15.80;;;-1.60;99.90;;;;;;5056599;28;20485;-44
2022/12/12 01:18:35;;;;;;;25.13;15.07;;;-1.70;99.90;;;;;;5038320;28;20811;-44
2022/12/12 01:21:01;;;;;;;28.20;15.73;;;-1.70;99.90;;;;;;5056606;28;20419;-46
2022/12/12 01:23:27;;;;;;;28.20;15.13;;;-1.70;99.90;;;;;;5056621;28;20423;-44
2022/12/12 01:26:13;;;;;;;28.40;15.00;;;-1.80;99.90;;;;;;5056772;28;20180;-45
2022/12/12 01:28:39;;;;;;;27.50;14.70;;;-1.80;99.90;;;;;;5056368;28;20224;-45
2022/12/12 01:31:06;;;;;;;25.67;15.77;;;-1.80;99.90;;;;;;5056041;28;20402;-46
2022/12/12 01:33:32;;;;;;;25.73;15.50;;;-1.80;99.90;;;;;;5056281;28;20805;-45
2022/12/12 01:35:57;;;;;;;28.20;15.17;;;-1.80;99.90;;;;;;5056220;28;20553;-46
2022/12/12 01:38:23;;;;;;;31.90;15.37;;;-1.90;99.90;;;;;;5055896;28;20183;-45
2022/12/12 01:40:50;;;;;;;29.37;15.97;;;-1.90;99.90;;;;;;5038022;28;20219;-46
2022/12/12 01:43:18;;;;;;;28.37;16.30;;;-1.90;99.90;;;;;;5055891;28;20434;-46
2022/12/12 01:46:02;;;;;;;28.67;15.50;;;-2.00;99.90;;;;;;5055734;28;20891;-45
2022/12/12 01:48:35;;;;;;;26.67;14.93;;;-2.00;99.90;;;;;;5055975;28;20831;-46
2022/12/12 01:51:05;;;;;;;28.33;15.47;;;-2.00;99.90;;;;;;5055772;28;20453;-45
2022/12/12 01:53:32;;;;;;;27.97;15.13;;;-2.00;99.90;;;;;;5056005;28;20442;-45
2022/12/12 01:55:58;;;;;;;28.00;15.23;;;-2.00;99.90;;;;;;5056189;28;20415;-46
2022/12/12 01:58:25;;;;;;;25.23;14.57;;;-2.00;99.90;;;;;;5055511;28;20895;-44
2022/12/12 02:00:50;;;;;;;26.80;15.37;;;-2.00;99.90;;;;;;5055887;28;20422;-41
2022/12/12 02:03:16;;;;;;;27.40;15.27;;;-2.10;99.90;;;;;;5055676;28;20431;-42
2022/12/12 02:05:49;;;;;;;26.27;15.40;;;-2.10;99.90;;;;;;5055537;28;20215;-42
2022/12/12 02:08:16;;;;;;;34.07;15.27;;;-2.10;99.90;;;;;;5055414;28;20270;-42
2022/12/12 02:10:44;;;;;;;27.97;14.83;;;-2.20;99.90;;;;;;5055635;28;20411;-41
2022/12/12 02:13:13;;;;;;;29.40;14.73;;;-2.20;99.90;;;;;;5055672;28;20485;-41
2022/12/12 02:16:05;;;;;;;28.93;15.17;;;-2.20;99.90;;;;;;5056369;28;20423;-48
2022/12/12 02:18:58;;;;;;;28.20;15.37;;;-2.20;99.90;;;;;;5057480;28;20460;-46
2022/12/12 02:21:46;;;;;;;25.50;15.57;;;-2.20;99.90;;;;;;5057404;28;20403;-47
2022/12/12 02:24:43;;;;;;;26.50;14.77;;;-2.20;99.90;;;;;;5057486;28;20392;-47
2022/12/12 02:27:16;;;;;;;31.13;16.63;;;-2.30;99.90;;;;;;5057602;28;20549;-47
2022/12/12 02:30:30;;;;;;;28.50;14.93;;;-2.30;99.90;;;;;;5062478;23;20490;-45
2022/12/12 02:33:25;;;;;;;31.67;15.20;;;-2.30;99.90;;;;;;4947811;28;20472;-47
2022/12/12 02:36:08;;;;;;;28.33;15.73;;;-2.40;99.90;;;;;;5035026;28;20396;-45
2022/12/12 02:38:48;;;;;;;27.90;15.00;;;-2.40;99.90;;;;;;5038464;28;20431;-46
2022/12/12 02:41:25;;;;;;;26.53;15.17;;;-2.50;99.90;;;;;;5055105;28;20403;-47
2022/12/12 02:44:21;;;;;;;28.53;15.80;;;-2.50;99.90;;;;;;5055402;28;20440;-46
2022/12/12 02:47:04;;;;;;;31.97;16.60;;;-2.60;99.90;;;;;;5054962;28;20866;-46
2022/12/12 02:49:40;;;;;;;27.53;15.80;;;-2.60;99.90;;;;;;5055183;28;20470;-48
2022/12/12 02:52:08;;;;;;;25.10;15.27;;;-2.60;99.90;;;;;;5055328;28;20395;-46
2022/12/12 02:54:33;;;;;;;27.67;14.70;;;-2.70;99.90;;;;;;5054543;28;20416;-45
2022/12/12 02:57:01;;;;;;;25.30;15.13;;;-2.70;99.90;;;;;;5054690;28;20418;-47
2022/12/12 02:59:37;;;;;;;26.50;14.40;;;-2.70;99.90;;;;;;5054767;28;20293;-47
2022/12/12 03:02:11;;;;;;;30.80;13.80;;;-2.80;99.90;;;;;;5054931;28;20434;-47
2022/12/12 03:08:10;;;;;;;25.43;14.27;;;-2.80;99.90;;;;;;5054747;28;20398;-46
2022/12/12 03:10:57;;;;;;;25.23;14.10;;;-2.90;99.90;;;;;;5054219;28;20997;-46
2022/12/12 03:13:50;;;;;;;23.00;14.30;;;-2.90;99.90;;;;;;5054170;28;20411;-46
2022/12/12 03:16:35;;;;;;;26.13;14.60;;;-2.90;99.90;;;;;;5054436;28;20745;-46
2022/12/12 03:19:12;;;;;;;25.83;14.60;;;-3.00;99.90;;;;;;5054279;28;20435;-47
2022/12/12 03:21:58;;;;;;;25.20;13.53;;;-3.00;99.90;;;;;;5054349;28;20481;-46
2022/12/12 03:24:37;;;;;;;27.67;15.00;;;-3.10;99.90;;;;;;5054149;28;20395;-47
2022/12/12 03:27:08;;;;;;;22.27;13.50;;;-3.10;99.90;;;;;;5054020;28;20391;-48
2022/12/12 03:29:41;;;;;;;21.73;13.23;;;-3.10;99.90;;;;;;5053779;28;20880;-45
2022/12/12 03:32:16;;;;;;;27.50;13.63;;;-3.10;99.90;;;;;;5054213;28;20880;-47
2022/12/12 03:34:46;;;;;;;25.77;14.53;;;-3.20;99.90;;;;;;5053834;28;20390;-46
2022/12/12 03:37:21;;;;;;;23.70;13.67;;;-3.20;99.90;;;;;;5054162;28;20490;-46
2022/12/12 03:40:19;;;;;;;27.10;14.67;;;-3.20;99.90;;;;;;5053806;28;20438;-46
2022/12/12 03:43:02;;;;;;;25.20;14.77;;;-3.20;99.90;;;;;;5036992;28;20430;-47
2022/12/12 03:45:38;;;;;;;28.63;13.70;;;-3.30;99.90;;;;;;5054188;28;20398;-48
2022/12/12 03:48:11;;;;;;;23.57;14.53;;;-3.30;99.90;;;;;;5054269;28;20551;-48
2022/12/12 03:50:52;;;;;;;24.30;14.20;;;-3.30;99.90;;;;;;5054700;28;20511;-48
2022/12/12 03:53:28;;;;;;;22.93;13.40;;;-3.30;99.90;;;;;;5054380;28;20391;-49
2022/12/12 03:56:06;;;;;;;24.87;13.90;;;-3.40;99.90;;;;;;5055918;28;20879;-46
2022/12/12 03:58:42;;;;;;;26.87;13.30;;;-3.40;99.90;;;;;;5055711;28;20430;-47
2022/12/12 04:01:11;;;;;;;25.57;13.80;;;-3.40;99.90;;;;;;5054142;28;20410;-48
2022/12/12 04:03:58;;;;;;;31.73;13.57;;;-3.50;99.90;;;;;;5053798;28;20414;-48
2022/12/12 04:06:47;;;;;;;30.20;13.77;;;-3.50;99.90;;;;;;5053556;28;20399;-48
2022/12/12 04:15:29;;;;;;;25.93;13.90;;;-3.50;99.90;;;;;;5053697;28;20398;-47
2022/12/12 04:18:12;;;;;;;28.63;14.90;;;-3.50;99.90;;;;;;5053488;28;20516;-47
2022/12/12 04:23:57;;;;;;;30.97;15.90;;;-3.50;99.90;;;;;;5053534;28;20386;-44
2022/12/12 04:26:43;;;;;;;31.37;15.00;;;-3.60;99.90;;;;;;5053480;28;20402;-40
2022/12/12 04:29:17;;;;;;;30.50;15.30;;;-3.60;99.90;;;;;;5035043;28;20485;-43
2022/12/12 04:31:49;;;;;;;31.10;15.63;;;-3.60;99.90;;;;;;5053451;28;20391;-41
2022/12/12 04:34:31;;;;;;;28.53;14.80;;;-3.60;99.90;;;;;;5035179;28;20445;-44
2022/12/12 04:36:57;;;;;;;28.57;15.60;;;-3.70;99.90;;;;;;5053357;28;20387;-42
2022/12/12 04:39:24;;;;;;;26.30;13.77;;;-3.70;99.90;;;;;;5036317;28;20797;-42
2022/12/12 04:41:52;;;;;;;30.97;15.77;;;-3.70;99.90;;;;;;5057295;28;20261;-41
2022/12/12 04:44:20;;;;;;;31.63;14.87;;;-3.70;99.90;;;;;;5039214;28;20846;-40
2022/12/12 04:46:50;;;;;;;25.97;14.43;;;-3.70;99.90;;;;;;5057177;28;20451;-43
2022/12/12 04:49:21;;;;;;;24.67;14.73;;;-3.80;99.90;;;;;;5056883;28;20519;-41
2022/12/12 04:51:52;;;;;;;29.53;14.97;;;-3.80;99.90;;;;;;5057237;28;20409;-43
2022/12/12 04:54:31;;;;;;;32.57;14.67;;;-3.80;99.90;;;;;;5056874;28;20399;-41
2022/12/12 04:57:01;;;;;;;26.47;14.47;;;-3.90;99.90;;;;;;5057159;28;20387;-42
2022/12/12 04:59:27;;;;;;;26.00;13.40;;;-3.90;99.90;;;;;;5056843;28;20435;-44
2022/12/12 05:02:03;;;;;;;25.10;13.67;;;-4.00;99.90;;;;;;5038798;28;20450;-42
2022/12/12 05:04:38;;;;;;;29.97;13.87;;;-4.00;99.90;;;;;;5057347;28;20401;-41
2022/12/12 05:07:12;;;;;;;29.00;14.67;;;-4.00;99.90;;;;;;5056839;28;20413;-41
2022/12/12 05:09:38;;;;;;;25.20;14.53;;;-4.00;99.90;;;;;;5038474;28;20472;-41
2022/12/12 05:12:04;;;;;;;23.43;13.70;;;-4.00;99.90;;;;;;5056724;28;20860;-43
2022/12/12 05:14:30;;;;;;;24.83;13.47;;;-4.10;99.90;;;;;;5056370;28;20449;-40
2022/12/12 05:17:05;;;;;;;24.57;13.00;;;-4.10;99.90;;;;;;5038549;28;20417;-44
2022/12/12 05:19:31;;;;;;;25.73;13.47;;;-4.10;99.90;;;;;;5056528;28;20935;-45
2022/12/12 05:21:56;;;;;;;23.83;13.20;;;-4.20;99.90;;;;;;5056562;28;20506;-43
2022/12/12 05:24:22;;;;;;;27.30;14.17;;;-4.20;99.90;;;;;;5038497;28;20183;-42
2022/12/12 05:26:47;;;;;;;27.43;13.63;;;-4.20;99.90;;;;;;5056513;28;20185;-42
2022/12/12 05:29:13;;;;;;;27.03;12.83;;;-4.20;99.90;;;;;;5056070;28;20639;-43
2022/12/12 05:31:39;;;;;;;21.30;12.60;;;-4.20;99.90;;;;;;5056536;28;20189;-43
2022/12/12 05:34:04;;;;;;;25.23;12.37;;;-4.20;99.90;;;;;;5056609;28;20205;-43
2022/12/12 05:36:30;;;;;;;22.87;12.97;;;-4.20;99.90;;;;;;5038324;28;20263;-43
2022/12/12 05:38:56;;;;;;;19.40;11.10;;;-4.20;99.90;;;;;;5056333;28;20693;-44
2022/12/12 05:41:22;;;;;;;22.10;11.97;;;-4.30;99.90;;;;;;5057108;28;20662;-42
2022/12/12 05:43:47;;;;;;;22.47;12.57;;;-4.20;99.90;;;;;;5056289;28;20469;-42
2022/12/12 05:46:13;;;;;;;21.77;11.97;;;-4.30;99.90;;;;;;5056173;28;20188;-42
2022/12/12 05:48:39;;;;;;;24.00;12.37;;;-4.30;99.90;;;;;;5037873;28;20301;-41
2022/12/12 05:51:05;;;;;;;17.90;10.83;;;-4.30;99.90;;;;;;5037408;28;20169;-43
2022/12/12 05:53:31;;;;;;;19.27;10.73;;;-4.30;99.90;;;;;;5056667;28;20180;-41
2022/12/12 05:55:56;;;;;;;17.23;10.90;;;-4.40;99.90;;;;;;5055978;28;20492;-43
2022/12/12 05:58:22;;;;;;;20.53;11.73;;;-4.40;99.90;;;;;;5055535;28;20170;-39
2022/12/12 06:00:49;;;;;;;23.30;10.93;;;-4.50;99.90;;;;;;5055648;28;20599;-41
2022/12/12 06:03:15;;;;;;;22.93;12.10;;;-4.50;99.90;;;;;;5055435;28;20228;-41
2022/12/12 06:05:41;;;;;;;20.97;11.30;;;-4.60;99.90;;;;;;5055437;28;20405;-42
2022/12/12 06:08:06;;;;;;;18.80;10.67;;;-4.60;99.90;;;;;;5037596;28;20419;-42
2022/12/12 06:10:32;;;;;;;20.00;11.17;;;-4.60;99.90;;;;;;5055598;28;20274;-42
2022/12/12 06:12:58;;;;;;;20.20;11.13;;;-4.60;99.90;;;;;;5037399;28;20545;-40
2022/12/12 06:15:23;;;;;;;19.00;10.53;;;-4.60;99.90;;;;;;5055344;28;20682;-43
2022/12/12 06:17:50;;;;;;;18.33;11.33;;;-4.70;99.90;;;;;;5037327;28;20174;-42
2022/12/12 06:20:17;;;;;;;20.10;11.37;;;-4.70;99.90;;;;;;5037191;28;20210;-43
2022/12/12 06:22:43;;;;;;;19.23;10.83;;;-4.70;99.90;;;;;;5037307;28;20424;-43
2022/12/12 06:25:10;;;;;;;20.97;11.40;;;-4.70;99.90;;;;;;5038057;28;20414;-40
2022/12/12 06:27:36;;;;;;;17.73;10.70;;;-4.80;99.90;;;;;;5037726;28;20195;-42
2022/12/12 06:30:03;;;;;;;19.47;11.10;;;-4.70;99.90;;;;;;5054811;28;20469;-41
2022/12/12 06:32:29;;;;;;;19.57;11.57;;;-4.80;99.90;;;;;;5037442;28;20181;-40
2022/12/12 06:34:55;;;;;;;22.17;11.87;;;-4.90;99.90;;;;;;5065985;28;20437;-42
2022/12/12 06:37:21;;;;;;;20.70;11.43;;;-4.90;99.90;;;;;;5069727;28;20412;-42
2022/12/12 06:39:46;;;;;;;20.73;10.37;;;-4.90;99.90;;;;;;5055757;28;20202;-44
2022/12/12 06:42:12;;;;;;;19.83;10.33;;;-4.90;99.90;;;;;;5037158;28;20273;-43
2022/12/12 06:44:37;;;;;;;18.23;10.40;;;-5.00;99.90;;;;;;5037078;28;20579;-42
2022/12/12 06:47:03;;;;;;;17.23;9.57;;;-4.90;99.90;;;;;;5055207;28;20175;-42
2022/12/12 06:49:29;;;;;;;17.13;9.87;;;-4.90;99.90;;;;;;5054998;28;20680;-44
2022/12/12 06:51:54;;;;;;;17.20;9.57;;;-4.90;99.90;;;;;;5055114;28;20182;-39
2022/12/12 06:54:20;;;;;;;16.73;9.50;;;-4.90;99.90;;;;;;5054632;28;20170;-42
2022/12/12 06:56:46;;;;;;;21.80;10.93;;;-4.90;99.90;;;;;;5036582;28;20181;-42
2022/12/12 06:59:12;;;;;;;19.93;11.13;;;-4.90;99.90;;;;;;5036609;28;20713;-42
2022/12/12 07:01:38;;;;;;;24.20;10.13;;;-5.00;99.90;;;;;;5035793;28;20421;-42
2022/12/12 07:04:04;;;;;;;18.63;10.90;;;-4.90;99.90;;;;;;5054356;28;20667;-44
2022/12/12 07:06:29;;;;;;;19.87;11.33;;;-4.90;99.90;;;;;;5036454;28;20184;-41
2022/12/12 07:08:57;;;;;;;22.33;11.33;;;-4.90;99.90;;;;;;5036293;28;20215;-43
2022/12/12 07:11:24;;;;;;;23.50;11.30;;;-4.90;99.90;;;;;;5054559;28;20177;-41
2022/12/12 07:13:51;;;;;;;20.70;10.50;;;-4.90;99.90;;;;;;5054433;28;20468;-42
2022/12/12 07:16:17;;;;;;;21.23;10.90;;;-4.90;99.90;;;;;;5036253;28;20444;-43
2022/12/12 07:18:42;;;;;;;22.43;10.97;;;-4.90;99.90;;;;;;5036056;28;20539;-42
2022/12/12 07:21:11;;;;;;;22.30;10.23;;;-5.00;99.90;;;;;;5036494;28;20424;-42
2022/12/12 07:23:37;;;;;;;20.77;10.63;;;-5.00;99.90;;;;;;5054144;28;20173;-43
2022/12/12 07:26:15;;;;;;;25.00;11.07;;;-5.00;99.90;;;;;;5036665;28;20920;-47
2022/12/12 07:28:40;;;;;;;24.47;11.17;;;-5.00;99.90;;;;;;5053866;28;20232;-46
2022/12/12 07:31:08;;;;;;;21.20;10.87;;;-5.00;99.90;;;;;;5054273;28;20786;-47
2022/12/12 07:33:34;;;;;;;22.33;10.10;;;-5.00;99.90;;;;;;5054279;28;20183;-46
2022/12/12 07:36:00;;;;;;;21.00;10.27;;;-5.00;99.90;;;;;;5054090;28;20416;-47
2022/12/12 07:38:27;;;;;;;19.83;10.53;;;-5.00;99.90;;;;;;5053680;28;20534;-46
2022/12/12 07:40:52;;;;;;;22.57;11.37;;;-5.10;99.90;;;;;;5053998;28;20419;-47
2022/12/12 07:43:18;;;;;;;19.33;10.23;;;-5.10;99.90;;;;;;5053636;28;20503;-48
2022/12/12 07:45:45;;;;;;;20.10;11.10;;;-5.00;99.90;;;;;;5053539;28;20199;-48
2022/12/12 07:48:10;;;;;;;17.93;10.20;;;-5.00;99.90;;;;;;5053985;28;20188;-47
2022/12/12 07:50:40;;;;;;;17.57;9.57;;;-5.00;99.90;;;;;;5053455;28;20514;-47
2022/12/12 07:53:06;;;;;;;19.17;9.83;;;-5.10;99.90;;;;;;5053511;28;20239;-48
2022/12/12 07:55:33;;;;;;;18.40;10.37;;;-5.10;99.90;;;;;;5053394;28;20450;-47
2022/12/12 07:57:58;;;;;;;15.23;9.53;;;-5.00;99.90;;;;;;5053518;28;20476;-47
2022/12/12 08:00:24;;;;;;;19.70;10.37;;;-5.00;99.90;;;;;;5053433;28;20515;-48
2022/12/12 08:02:50;;;;;;;19.53;10.03;;;-5.00;99.90;;;;;;5053380;28;20181;-47
2022/12/12 08:05:16;;;;;;;20.03;9.90;;;-5.00;99.90;;;;;;5053857;28;20185;-46
2022/12/12 08:07:41;;;;;;;17.50;9.03;;;-4.20;99.90;;;;;;5053325;28;20268;-47
2022/12/12 08:10:08;;;;;;;15.70;10.03;;;-4.90;99.90;;;;;;5053095;28;20573;-47
2022/12/12 08:12:33;;;;;;;16.67;9.23;;;-4.90;99.90;;;;;;5053125;28;20183;-45
2022/12/12 08:14:59;;;;;;;21.73;9.97;;;-4.90;99.90;;;;;;5053293;28;20503;-47
2022/12/12 08:17:25;;;;;;;21.30;9.73;;;-4.90;99.90;;;;;;5053494;28;20186;-47
2022/12/12 08:19:50;;;;;;;16.37;10.03;;;-4.90;99.90;;;;;;5053205;28;20713;-47
2022/12/12 08:22:16;;;;;;;20.20;9.77;;;-4.90;99.90;;;;;;5035646;28;20216;-47
2022/12/12 08:24:42;;;;;;;19.87;10.97;;;-4.90;99.90;;;;;;5053440;28;20193;-47
2022/12/12 08:27:07;;;;;;;18.50;9.47;;;-4.80;99.90;;;;;;5053119;28;20218;-48
2022/12/12 08:29:33;;;;;;;22.37;10.97;;;-4.70;99.90;;;;;;5052880;28;20225;-46
2022/12/12 08:31:58;;;;;;;21.57;10.90;;;-4.70;99.90;;;;;;5053330;28;20192;-47
2022/12/12 08:34:25;;;;;;;16.87;9.53;;;-4.60;99.90;;;;;;5053020;28;20196;-47
2022/12/12 08:36:51;;;;;;;20.87;10.20;;;-4.60;99.90;;;;;;5053049;28;20174;-48
2022/12/12 08:39:17;;;;;;;20.97;11.10;;;-4.60;99.90;;;;;;5052980;28;20446;-45
2022/12/12 08:41:46;;;;;;;19.60;9.93;;;-4.60;99.90;;;;;;5052974;28;20420;-46
2022/12/12 08:44:13;;;;;;;21.73;9.77;;;-4.60;99.90;;;;;;5053070;28;20661;-47
2022/12/12 08:46:39;;;;;;;18.10;9.57;;;-4.60;99.90;;;;;;5052840;28;20435;-47
2022/12/12 08:49:04;;;;;;;20.13;10.03;;;-4.50;99.90;;;;;;5052911;28;20471;-47
2022/12/12 08:51:30;;;;;;;26.90;11.53;;;-4.50;99.90;;;;;;5052862;28;20183;-46
2022/12/12 08:53:57;;;;;;;24.20;11.60;;;-4.40;99.90;;;;;;5053052;28;20292;-47
2022/12/12 08:56:23;;;;;;;23.73;11.47;;;-4.30;99.90;;;;;;5053280;28;20502;-47
2022/12/12 08:58:48;;;;;;;24.67;11.93;;;-4.20;99.90;;;;;;5052981;28;20614;-48
2022/12/12 09:01:20;;;;;;;30.80;12.67;;;-4.20;99.90;;;;;;5053268;28;20411;-47
2022/12/12 09:03:46;;;;;;;32.63;12.23;;;-4.10;99.90;;;;;;5052957;28;20180;-47
2022/12/12 09:06:13;;;;;;;24.23;12.93;;;-4.00;99.90;;;;;;5052746;28;20817;-48
2022/12/12 09:08:39;;;;;;;27.20;13.63;;;-3.90;99.90;;;;;;5052615;28;20466;-48
2022/12/12 09:11:05;;;;;;;31.70;14.17;;;-3.90;99.90;;;;;;5054004;28;20421;-47
2022/12/12 09:13:32;;;;;;;34.87;15.30;;;-3.80;99.90;;;;;;5073808;28;20412;-47
2022/12/12 09:15:58;;;;;;;31.50;14.30;;;-3.80;99.90;;;;;;5064307;28;20785;-48
2022/12/12 09:18:24;;;;;;;32.30;14.43;;;-3.70;99.90;;;;;;5053442;28;20415;-47
2022/12/12 09:20:52;;;;;;;27.87;13.70;;;-3.60;99.90;;;;;;5053265;28;20454;-47
2022/12/12 09:23:18;;;;;;;33.70;13.63;;;-3.50;99.90;;;;;;5053011;28;20420;-47
2022/12/12 09:25:44;;;;;;;28.70;13.93;;;-3.40;99.90;;;;;;5054599;28;20420;-47
2022/12/12 09:28:11;;;;;;;28.37;13.13;;;-3.30;99.90;;;;;;5056643;28;20434;-48
2022/12/12 09:30:37;;;;;;;34.77;14.37;;;-3.10;99.90;;;;;;5056045;28;20224;-47
2022/12/12 09:33:03;;;;;;;29.77;13.30;;;-3.00;99.90;;;;;;5056410;28;20489;-46
2022/12/12 09:35:28;;;;;;;34.27;14.37;;;-2.90;99.90;;;;;;5056349;28;20901;-48
2022/12/12 09:37:54;;;;;;;27.40;12.67;;;-2.70;99.90;;;;;;5056210;28;20173;-46
2022/12/12 09:40:26;;;;;;;31.43;13.60;;;-2.60;99.90;;;;;;5056195;28;20260;-48
2022/12/12 09:42:51;;;;;;;34.80;14.70;;;-2.40;99.90;;;;;;5056323;28;20272;-48
2022/12/12 09:45:19;;;;;;;27.73;13.17;;;-2.30;99.90;;;;;;5055903;28;20945;-48
2022/12/12 09:47:47;;;;;;;37.10;15.13;;;-2.20;99.90;;;;;;5055899;28;20194;-47
2022/12/12 09:50:33;;;;;;;37.97;15.60;;;-2.10;99.90;;;;;;5055709;28;20837;-49
2022/12/12 09:53:20;;;;;;;37.63;15.57;;;-2.00;99.90;;;;;;5056409;28;20778;-48
2022/12/12 09:56:16;;;;;;;30.33;14.70;;;-2.00;99.90;;;;;;5055637;28;20459;-48
2022/12/12 09:58:53;;;;;;;33.17;15.17;;;-1.90;99.90;;;;;;5055856;28;20445;-48
2022/12/12 10:02:04;;;;;;;35.63;15.20;;;-1.80;99.90;;;;;;5055588;28;20499;-47
2022/12/12 10:04:58;;;;;;;34.87;14.23;;;-1.80;99.90;;;;;;5052522;28;20811;-47
2022/12/12 10:07:28;;;;;;;34.00;13.80;;;-1.70;99.90;;;;;;5048527;28;20800;-49
2022/12/12 10:10:15;;;;;;;35.10;14.43;;;-1.60;99.90;;;;;;5055628;28;21003;-49
2022/12/12 10:12:41;;;;;;;27.17;13.63;;;-1.60;99.90;;;;;;5055582;28;20403;-50
2022/12/12 10:15:20;;;;;;;32.90;14.10;;;-1.50;99.90;;;;;;5055729;28;20529;-47
2022/12/12 10:17:47;;;;;;;31.23;13.50;;;-1.50;99.90;;;;;;5055826;28;20165;-49
2022/12/12 10:20:20;;;;;;;34.13;13.77;;;-1.40;99.90;;;;;;5055325;28;20438;-49
2022/12/12 10:22:52;;;;;;;35.50;14.87;;;-1.40;99.90;;;;;;5055256;28;20434;-48
2022/12/12 10:25:23;;;;;;;31.03;14.77;;;-1.40;99.90;;;;;;5055838;28;20402;-48
2022/12/12 10:28:03;;;;;;;29.67;14.33;;;-1.30;99.90;;;;;;5055342;28;20399;-49
2022/12/12 10:30:31;;;;;;;32.10;14.83;;;-1.30;99.90;;;;;;5054777;28;20814;-49
2022/12/12 10:33:17;;;;;;;34.57;14.17;;;-1.20;99.90;;;;;;5055481;28;20422;-49
2022/12/12 10:35:53;;;;;;;30.50;13.67;;;-1.20;99.90;;;;;;5040613;28;20779;-49
2022/12/12 10:38:52;;;;;;;35.07;13.03;;;-1.20;99.90;;;;;;5054034;28;20402;-50
2022/12/12 10:41:23;;;;;;;28.20;12.90;;;-1.20;99.90;;;;;;5054858;28;20430;-49
2022/12/12 10:43:59;;;;;;;30.00;12.93;;;-1.10;99.90;;;;;;5055190;28;20407;-48
2022/12/12 10:46:40;;;;;;;28.03;13.00;;;-1.10;99.90;;;;;;5055261;28;20485;-40
2022/12/12 10:49:18;;;;;;;25.13;12.37;;;-1.00;99.90;;;;;;5055311;28;20989;-42
2022/12/12 10:51:46;;;;;;;26.43;12.17;;;-1.00;99.90;;;;;;5037358;28;20422;-43
2022/12/12 10:54:21;;;;;;;27.93;13.13;;;-0.90;99.90;;;;;;5054724;28;20411;-43
2022/12/12 10:57:03;;;;;;;21.37;11.80;;;-0.90;99.90;;;;;;5055145;28;20926;-41
2022/12/12 10:59:28;;;;;;;24.07;12.80;;;-0.90;99.90;;;;;;5054796;28;20462;-43
2022/12/12 11:01:58;;;;;;;29.47;13.10;;;-0.80;99.90;;;;;;5054758;28;20929;-41
2022/12/12 11:04:26;;;;;;;22.00;12.70;;;-0.80;99.90;;;;;;5055623;28;20182;-43
2022/12/12 11:06:53;;;;;;;27.77;11.87;;;-0.80;99.90;;;;;;5054736;28;20470;-43
2022/12/12 11:09:26;;;;;;;26.87;13.10;;;-0.70;99.90;;;;;;5054727;28;20874;-42
2022/12/12 11:11:59;;;;;;;22.83;11.30;;;-0.70;99.90;;;;;;5054675;28;20774;-41
2022/12/12 11:14:45;;;;;;;25.53;12.10;;;-0.70;99.90;;;;;;5054169;28;20756;-43
2022/12/12 11:17:32;;;;;;;16.80;8.53;;;-0.60;99.90;;;;;;5040085;28;20415;-43
2022/12/12 11:20:01;;;;;;;20.33;10.90;;;-0.60;99.90;;;;;;5054163;28;20442;-44
2022/12/12 11:22:31;;;;;;;25.70;12.13;;;-0.50;99.90;;;;;;5054175;28;20501;-43
2022/12/12 11:24:57;;;;;;;21.27;11.77;;;-0.40;99.90;;;;;;5054027;28;20424;-42
2022/12/12 11:27:30;;;;;;;24.33;11.43;;;-0.40;99.90;;;;;;5054110;28;20439;-44
2022/12/12 11:30:05;;;;;;;27.73;10.63;;;-0.40;99.90;;;;;;5054022;28;20219;-42
2022/12/12 11:32:36;;;;;;;24.00;12.17;;;-0.30;99.90;;;;;;5054232;28;20513;-43
2022/12/12 11:35:06;;;;;;;27.67;12.27;;;-0.20;99.90;;;;;;5054543;28;20395;-43
2022/12/12 11:37:43;;;;;;;21.93;10.37;;;-0.20;99.90;;;;;;5053811;28;20936;-42
2022/12/12 11:40:37;;;;;;;21.00;11.53;;;-0.10;99.90;;;;;;5053852;28;20434;-42
2022/12/12 11:43:21;;;;;;;20.93;10.30;;;0.00;99.90;;;;;;5053734;28;20987;-42
2022/12/12 11:45:58;;;;;;;23.50;10.03;;;0.00;99.90;;;;;;5053896;28;20408;-44
2022/12/12 11:48:35;;;;;;;22.63;10.63;;;0.10;99.90;;;;;;5053170;28;20460;-41
2022/12/12 11:51:02;;;;;;;21.20;9.57;;;0.10;99.90;;;;;;5053721;28;20420;-44
2022/12/12 11:53:31;;;;;;;28.43;10.83;;;0.20;99.90;;;;;;5053896;28;20908;-44
2022/12/12 11:55:56;;;;;;;21.87;10.73;;;0.30;99.90;;;;;;5053586;28;20911;-43
2022/12/12 11:58:36;;;;;;;19.57;10.27;;;0.40;99.90;;;;;;5054811;28;20423;-44
2022/12/12 12:01:11;;;;;;;23.77;10.63;;;0.40;99.90;;;;;;5054779;28;20156;-44
2022/12/12 12:03:48;;;;;;;25.47;13.17;;;0.60;99.90;;;;;;5063079;28;20398;-43
2022/12/12 12:06:32;;;;;;;27.17;12.07;;;0.60;99.90;;;;;;5054861;28;20426;-43
2022/12/12 12:09:21;;;;;;;24.37;11.23;;;0.70;99.90;;;;;;5054361;28;20472;-43
2022/12/12 12:11:56;;;;;;;22.80;11.07;;;0.70;99.90;;;;;;5054875;28;20397;-44
2022/12/12 12:14:55;;;;;;;23.07;10.90;;;0.80;99.90;;;;;;5054109;28;20450;-44
2022/12/12 12:17:31;;;;;;;25.87;11.73;;;0.90;99.90;;;;;;5035667;28;20419;-43
2022/12/12 12:20:20;;;;;;;23.73;11.87;;;1.00;99.90;;;;;;5053551;28;20203;-43
2022/12/12 12:23:07;;;;;;;23.00;11.27;;;1.00;99.90;;;;;;5053498;28;20666;-42
2022/12/12 12:25:37;;;;;;;22.40;11.47;;;1.10;99.90;;;;;;5053211;28;20263;-44
2022/12/12 12:28:27;;;;;;;22.87;11.60;;;1.10;99.90;;;;;;5053886;28;20243;-42
2022/12/12 12:31:21;;;;;;;23.70;11.23;;;1.20;99.90;;;;;;5053023;28;20230;-43
2022/12/12 12:34:07;;;;;;;21.60;12.27;;;1.30;99.90;;;;;;5053212;28;20168;-43
2022/12/12 12:36:52;;;;;;;19.70;10.57;;;1.30;99.90;;;;;;5053359;28;20179;-45
2022/12/12 12:39:35;;;;;;;20.10;10.87;;;1.40;99.90;;;;;;5053563;28;20238;-44
2022/12/12 12:42:07;;;;;;;19.67;10.20;;;1.50;99.90;;;;;;5053278;28;20199;-42
2022/12/12 12:45:03;;;;;;;18.87;10.27;;;1.50;99.90;;;;;;5053092;28;20711;-43
2022/12/12 12:47:35;;;;;;;21.30;11.80;;;1.60;99.90;;;;;;5035638;28;20226;-43
2022/12/12 12:50:11;;;;;;;20.53;10.63;;;1.60;99.90;;;;;;5052824;28;20231;-43
2022/12/12 12:52:42;;;;;;;19.03;10.40;;;1.70;99.90;;;;;;5053272;28;20211;-44
2022/12/12 12:55:17;;;;;;;20.57;10.00;;;1.70;99.90;;;;;;5053640;28;20157;-43
2022/12/12 12:57:46;;;;;;;18.77;9.77;;;1.80;99.90;;;;;;5053072;28;20272;-44
2022/12/12 13:00:17;;;;;;;17.33;9.23;;;1.80;99.90;;;;;;5053624;28;20192;-45
2022/12/12 13:03:04;;;;;;;17.53;9.20;;;1.80;99.90;;;;;;5057105;28;20211;-46